createdAt,value
2018-09-18T00:00:42.736Z,60.98
2018-09-18T00:03:15.046Z,61.88
2018-09-18T00:05:47.345Z,62.11
2018-09-18T00:08:19.617Z,62.57
2018-09-18T00:10:51.857Z,62.54
2018-09-18T00:13:24.162Z,62.44
2018-09-18T00:15:56.392Z,62.69
2018-09-18T00:18:28.651Z,62.59
2018-09-18T00:21:00.928Z,62.31
2018-09-18T00:23:33.182Z,62.79
2018-09-18T00:26:05.560Z,62.83
2018-09-18T00:28:37.828Z,62.58
2018-09-18T00:31:10.073Z,63.31
2018-09-18T00:33:42.365Z,63.09
2018-09-18T00:36:14.665Z,63.81
2018-09-18T00:38:47.012Z,63.15
2018-09-18T00:41:19.272Z,62.74
2018-09-18T00:43:51.536Z,63.52
2018-09-18T00:46:23.767Z,62.80
2018-09-18T00:48:56.037Z,63.36
2018-09-18T00:51:28.291Z,63.06
2018-09-18T00:54:00.589Z,63.53
2018-09-18T00:56:32.851Z,63.76
2018-09-18T00:59:05.087Z,64.39
2018-09-18T01:01:37.420Z,63.97
2018-09-18T01:04:09.744Z,64.38
2018-09-18T01:06:42.036Z,64.73
2018-09-18T01:09:14.365Z,64.41
2018-09-18T01:11:46.599Z,64.48
2018-09-18T01:14:18.880Z,64.42
2018-09-18T01:16:51.120Z,64.74
2018-09-18T01:19:23.410Z,64.32
2018-09-18T01:21:55.703Z,64.15
2018-09-18T01:24:27.989Z,64.51
2018-09-18T01:27:00.216Z,64.59
2018-09-18T01:29:32.536Z,64.36
2018-09-18T01:32:05.148Z,63.92
2018-09-18T01:34:37.444Z,64.08
2018-09-18T01:37:09.695Z,64.25
2018-09-18T01:39:41.968Z,63.97
2018-09-18T01:42:14.249Z,64.19
2018-09-18T01:44:46.509Z,64.07
2018-09-18T01:47:18.828Z,63.94
2018-09-18T01:49:51.150Z,64.11
2018-09-18T01:52:23.408Z,64.04
2018-09-18T01:54:55.694Z,64.42
2018-09-18T01:57:27.978Z,64.37
2018-09-18T02:00:00.289Z,64.53
2018-09-18T02:02:32.549Z,64.38
2018-09-18T02:05:04.876Z,64.66
2018-09-18T02:07:37.144Z,64.79
2018-09-18T02:10:09.365Z,64.49
2018-09-18T02:12:41.641Z,64.76
2018-09-18T02:15:13.853Z,65.17
2018-09-18T02:17:47.188Z,65.15
2018-09-18T02:20:19.462Z,64.95
2018-09-18T02:22:51.716Z,64.82
2018-09-18T02:25:24.012Z,64.92
2018-09-18T02:27:58.504Z,65.33
2018-09-18T02:30:31.296Z,65.60
2018-09-18T02:33:03.572Z,65.65
2018-09-18T02:35:35.797Z,65.65
2018-09-18T02:38:08.092Z,65.84
2018-09-18T02:40:40.364Z,66.17
2018-09-18T02:43:12.650Z,66.16
2018-09-18T02:45:44.893Z,66.10
2018-09-18T02:48:17.177Z,65.86
2018-09-18T02:50:49.439Z,66.03
2018-09-18T02:53:21.707Z,65.54
2018-09-18T02:55:53.984Z,65.64
2018-09-18T02:58:26.257Z,66.11
2018-09-18T03:00:58.849Z,66.42
2018-09-18T03:03:31.141Z,66.07
2018-09-18T03:06:03.493Z,66.38
2018-09-18T03:08:35.789Z,66.46
2018-09-18T03:11:08.338Z,66.48
2018-09-18T03:13:40.607Z,66.82
2018-09-18T03:16:12.863Z,67.33
2018-09-18T03:18:45.133Z,67.60
2018-09-18T03:21:17.428Z,67.68
2018-09-18T03:23:56.401Z,68.73
2018-09-18T03:26:28.654Z,68.46
2018-09-18T03:29:00.931Z,68.54
2018-09-18T03:31:33.247Z,68.52
2018-09-18T03:34:05.537Z,68.30
2018-09-18T03:36:37.800Z,68.15
2018-09-18T03:39:10.071Z,68.03
2018-09-18T03:41:42.388Z,68.43
2018-09-18T03:44:14.663Z,68.71
2018-09-18T03:46:46.929Z,68.79
2018-09-18T03:49:19.203Z,68.75
2018-09-18T03:51:51.576Z,68.41
2018-09-18T03:54:23.938Z,68.25
2018-09-18T03:56:56.193Z,68.27
2018-09-18T03:59:28.592Z,68.16
2018-09-18T04:02:00.876Z,68.36
2018-09-18T04:04:33.212Z,69.17
2018-09-18T04:07:05.525Z,69.10
2018-09-18T04:09:37.838Z,69.07
2018-09-18T04:12:10.107Z,69.52
2018-09-18T04:14:42.387Z,69.42
2018-09-18T04:17:14.823Z,69.06
2018-09-18T04:19:47.101Z,69.47
2018-09-18T04:22:19.441Z,69.39
2018-09-18T04:24:51.689Z,69.60
2018-09-18T04:27:23.989Z,69.50
2018-09-18T04:29:56.241Z,69.60
2018-09-18T04:32:28.536Z,69.96
2018-09-18T04:35:00.763Z,70.04
2018-09-18T04:37:33.020Z,69.81
2018-09-18T04:40:05.954Z,69.65
2018-09-18T04:42:38.235Z,70.20
2018-09-18T04:45:10.500Z,69.74
2018-09-18T04:47:42.772Z,70.34
2018-09-18T04:50:15.021Z,70.74
2018-09-18T04:52:47.275Z,70.35
2018-09-18T04:55:19.532Z,70.11
2018-09-18T04:57:51.823Z,70.40
2018-09-18T05:00:24.066Z,70.56
2018-09-18T05:02:56.325Z,70.37
2018-09-18T05:05:28.596Z,70.59
2018-09-18T05:08:00.843Z,71.00
2018-09-18T05:10:33.093Z,71.48
2018-09-18T05:13:05.397Z,71.56
2018-09-18T05:15:37.654Z,71.61
2018-09-18T05:18:09.934Z,71.63
2018-09-18T05:20:42.164Z,71.74
2018-09-18T05:23:14.465Z,71.54
2018-09-18T05:25:46.736Z,71.02
2018-09-18T05:28:19.013Z,70.90
2018-09-18T05:30:51.290Z,71.14
2018-09-18T05:33:23.531Z,71.17
2018-09-18T05:35:55.809Z,71.16
2018-09-18T05:38:28.025Z,70.97
2018-09-18T05:41:00.300Z,71.24
2018-09-18T05:43:32.584Z,71.26
2018-09-18T05:46:04.860Z,70.14
2018-09-18T05:48:37.104Z,69.40
2018-09-18T05:51:09.434Z,69.26
2018-09-18T05:53:41.690Z,68.77
2018-09-18T05:56:13.957Z,68.58
2018-09-18T05:58:46.220Z,68.85
2018-09-18T06:01:18.500Z,68.71
2018-09-18T06:03:50.762Z,68.32
2018-09-18T06:06:23.081Z,68.50
2018-09-18T06:08:55.313Z,68.56
2018-09-18T06:11:27.601Z,67.73
2018-09-18T06:13:59.873Z,66.53
2018-09-18T06:16:32.249Z,65.54
2018-09-18T06:19:04.553Z,64.29
2018-09-18T06:21:36.827Z,62.00
2018-09-18T06:24:09.115Z,61.32
2018-09-18T06:26:41.365Z,59.98
2018-09-18T06:29:13.604Z,59.21
2018-09-18T06:31:45.885Z,58.59
2018-09-18T06:34:18.109Z,56.52
2018-09-18T06:36:50.386Z,54.54
2018-09-18T06:39:22.654Z,53.35
2018-09-18T06:41:54.928Z,51.95
2018-09-18T06:44:27.243Z,50.99
2018-09-18T06:46:59.495Z,50.00
2018-09-18T06:49:31.809Z,50.04
2018-09-18T06:52:04.079Z,48.57
2018-09-18T06:54:36.524Z,48.67
2018-09-18T06:57:08.664Z,47.58
2018-09-18T06:59:40.986Z,47.35
2018-09-18T07:02:14.129Z,45.80
2018-09-18T07:04:46.467Z,47.25
2018-09-18T07:07:18.768Z,48.30
2018-09-18T07:09:51.074Z,48.69
2018-09-18T07:12:23.390Z,48.45
2018-09-18T07:14:55.645Z,49.16
2018-09-18T07:17:27.919Z,48.52
2018-09-18T07:20:00.290Z,48.46
2018-09-18T07:22:42.139Z,48.47
2018-09-18T07:25:14.428Z,47.94
2018-09-18T07:27:46.715Z,48.14
2018-09-18T07:30:19.054Z,48.86
2018-09-18T07:32:51.337Z,47.35
2018-09-18T07:35:23.664Z,48.26
2018-09-18T07:37:55.928Z,48.05
2018-09-18T07:40:28.204Z,46.96
2018-09-18T07:43:00.446Z,47.43
2018-09-18T07:45:32.821Z,46.60
2018-09-18T07:48:05.120Z,46.59
2018-09-18T07:50:37.434Z,47.18
2018-09-18T07:53:09.690Z,45.63
2018-09-18T07:55:41.989Z,46.12
2018-09-18T07:58:14.293Z,45.43
2018-09-18T08:00:46.619Z,45.69
2018-09-18T08:03:25.788Z,45.44
2018-09-18T08:05:58.092Z,44.80
2018-09-18T08:08:30.336Z,45.69
2018-09-18T08:11:02.629Z,45.55
2018-09-18T08:13:34.895Z,44.68
2018-09-18T08:16:07.129Z,44.60
2018-09-18T08:18:39.445Z,44.98
2018-09-18T08:21:11.762Z,44.25
2018-09-18T08:23:44.113Z,44.07
2018-09-18T08:26:16.403Z,44.58
2018-09-18T08:28:48.705Z,44.50
2018-09-18T08:31:20.961Z,44.21
2018-09-18T08:33:53.234Z,44.35
2018-09-18T08:36:25.548Z,44.33
2018-09-18T08:39:00.457Z,44.24
2018-09-18T08:41:32.677Z,43.80
2018-09-18T08:44:06.539Z,43.56
2018-09-18T08:46:38.898Z,42.62
2018-09-18T08:49:11.201Z,42.45
2018-09-18T08:51:43.596Z,42.32
2018-09-18T08:54:15.790Z,41.53
2018-09-18T08:56:48.032Z,42.25
2018-09-18T08:59:20.337Z,41.75
2018-09-18T09:01:52.682Z,41.19
2018-09-18T09:04:24.964Z,41.60
2018-09-18T09:06:57.237Z,40.75
2018-09-18T09:09:29.607Z,40.24
2018-09-18T09:12:01.827Z,40.32
2018-09-18T09:14:34.269Z,41.45
2018-09-18T09:17:06.549Z,39.92
2018-09-18T09:19:38.866Z,39.55
2018-09-18T09:22:11.260Z,38.89
2018-09-18T09:24:43.577Z,38.88
2018-09-18T09:27:15.833Z,38.16
2018-09-18T09:29:48.176Z,37.62
2018-09-18T09:32:20.485Z,37.44
2018-09-18T09:34:52.959Z,36.12
2018-09-18T09:37:25.186Z,35.94
2018-09-18T09:39:57.450Z,37.03
2018-09-18T09:42:29.760Z,35.13
2018-09-18T09:45:02.098Z,35.83
2018-09-18T09:47:34.353Z,36.15
2018-09-18T09:50:07.046Z,36.62
2018-09-18T09:52:39.351Z,35.92
2018-09-18T09:55:11.877Z,36.72
2018-09-18T09:57:44.173Z,36.54
2018-09-18T10:00:22.006Z,35.91
2018-09-18T10:02:54.363Z,35.89
2018-09-18T10:05:26.608Z,34.99
2018-09-18T10:07:58.877Z,34.87
2018-09-18T10:10:31.152Z,34.92
2018-09-18T10:13:03.423Z,34.92
2018-09-18T10:15:35.706Z,34.81
2018-09-18T10:18:08.086Z,34.77
2018-09-18T10:20:40.321Z,34.72
2018-09-18T10:23:12.624Z,34.42
2018-09-18T10:25:44.875Z,34.71
2018-09-18T10:28:17.200Z,35.00
2018-09-18T10:30:49.545Z,34.58
2018-09-18T10:33:21.829Z,34.86
2018-09-18T10:35:54.130Z,34.00
2018-09-18T10:38:26.484Z,34.40
2018-09-18T10:40:58.914Z,34.21
2018-09-18T10:43:31.328Z,34.04
2018-09-18T10:46:03.597Z,33.58
2018-09-18T10:48:41.562Z,34.71
2018-09-18T10:51:13.796Z,33.49
2018-09-18T10:53:46.140Z,34.08
2018-09-18T10:56:18.453Z,33.91
2018-09-18T10:58:50.740Z,32.81
2018-09-18T11:01:23.150Z,32.93
2018-09-18T11:03:55.502Z,32.46
2018-09-18T11:06:27.799Z,32.47
2018-09-18T11:09:00.105Z,32.56
2018-09-18T11:11:32.487Z,31.95
2018-09-18T11:14:04.830Z,32.09
2018-09-18T11:16:37.137Z,32.53
2018-09-18T11:19:09.905Z,32.38
2018-09-18T11:21:42.296Z,32.90
2018-09-18T11:24:14.543Z,33.29
2018-09-18T11:26:46.814Z,33.09
2018-09-18T11:29:19.125Z,32.81
2018-09-18T11:31:51.502Z,32.60
2018-09-18T11:34:23.831Z,32.67
2018-09-18T11:36:56.124Z,32.41
2018-09-18T11:39:28.441Z,32.53
2018-09-18T11:42:00.821Z,32.24
2018-09-18T11:44:33.168Z,32.49
2018-09-18T11:47:05.486Z,32.61
2018-09-18T11:49:37.787Z,32.35
2018-09-18T11:52:10.268Z,32.49
2018-09-18T11:54:42.562Z,32.04
2018-09-18T11:57:14.897Z,31.92
2018-09-18T11:59:47.177Z,31.40
2018-09-18T12:02:19.531Z,31.32
2018-09-18T12:04:51.997Z,31.91
2018-09-18T12:07:24.322Z,32.36
2018-09-18T12:09:56.606Z,32.03
2018-09-18T12:12:28.957Z,30.48
2018-09-18T12:15:01.238Z,30.91
2018-09-18T12:17:33.639Z,30.84
2018-09-18T12:20:05.933Z,31.12
2018-09-18T12:22:38.245Z,31.46
2018-09-18T12:25:10.596Z,31.29
2018-09-18T12:27:43.122Z,31.13
2018-09-18T12:30:15.456Z,30.93
2018-09-18T12:32:47.777Z,30.53
2018-09-18T12:35:20.122Z,30.69
2018-09-18T12:37:52.430Z,30.24
2018-09-18T12:40:24.697Z,30.30
2018-09-18T12:42:57.036Z,30.56
2018-09-18T12:45:29.340Z,30.10
2018-09-18T12:48:02.091Z,30.04
2018-09-18T12:50:34.466Z,29.37
2018-09-18T12:53:06.784Z,28.70
2018-09-18T12:55:39.090Z,28.80
2018-09-18T12:58:11.467Z,28.22
2018-09-18T13:00:43.698Z,29.54
2018-09-18T13:03:16.021Z,29.66
2018-09-18T13:05:48.424Z,29.91
2018-09-18T13:08:20.779Z,30.03
2018-09-18T13:10:53.058Z,29.92
2018-09-18T13:13:26.197Z,30.42
2018-09-18T13:15:58.510Z,30.86
2018-09-18T13:18:30.898Z,30.13
2018-09-18T13:21:03.237Z,29.50
2018-09-18T13:23:35.543Z,30.37
2018-09-18T13:26:08.084Z,30.22
2018-09-18T13:28:40.385Z,30.36
2018-09-18T13:31:12.701Z,29.99
2018-09-18T13:33:45.015Z,29.46
2018-09-18T13:36:17.389Z,30.33
2018-09-18T13:38:49.658Z,30.44
2018-09-18T13:41:22.120Z,29.83
2018-09-18T13:43:54.328Z,29.87
2018-09-18T13:46:26.739Z,29.28
2018-09-18T13:48:59.039Z,28.74
2018-09-18T13:51:31.392Z,29.50
2018-09-18T13:54:03.667Z,30.08
2018-09-18T13:56:36.031Z,30.93
2018-09-18T13:59:08.352Z,30.39
2018-09-18T14:01:41.043Z,30.90
2018-09-18T14:04:13.219Z,30.56
2018-09-18T14:06:45.588Z,30.10
2018-09-18T14:09:17.998Z,30.03
2018-09-18T14:11:50.286Z,30.35
2018-09-18T14:14:22.744Z,29.87
2018-09-18T14:16:55.000Z,29.09
2018-09-18T14:19:27.276Z,28.38
2018-09-18T14:21:59.617Z,29.73
2018-09-18T14:24:31.984Z,29.52
2018-09-18T14:27:04.391Z,29.93
2018-09-18T14:29:36.673Z,29.21
2018-09-18T14:32:09.115Z,29.96
2018-09-18T14:34:41.434Z,29.46
2018-09-18T14:37:13.787Z,30.20
2018-09-18T14:39:46.122Z,30.02
2018-09-18T14:42:18.517Z,31.46
2018-09-18T14:44:50.922Z,31.46
2018-09-18T14:47:23.250Z,31.21
2018-09-18T14:49:55.636Z,31.24
2018-09-18T14:52:27.952Z,31.18
2018-09-18T14:55:00.369Z,31.25
2018-09-18T14:57:32.661Z,31.63
2018-09-18T15:00:05.160Z,31.90
2018-09-18T15:02:37.465Z,32.37
2018-09-18T15:05:09.818Z,32.52
2018-09-18T15:07:42.105Z,33.11
2018-09-18T15:10:14.446Z,33.59
2018-09-18T15:12:46.830Z,33.73
2018-09-18T15:15:19.136Z,33.72
2018-09-18T15:17:51.462Z,34.04
2018-09-18T15:20:23.885Z,33.74
2018-09-18T15:22:56.149Z,32.96
2018-09-18T15:25:28.485Z,33.03
2018-09-18T15:28:00.969Z,32.92
2018-09-18T15:30:33.252Z,33.31
2018-09-18T15:33:05.641Z,33.09
2018-09-18T15:35:38.583Z,33.22
2018-09-18T15:38:10.910Z,33.77
2018-09-18T15:40:43.290Z,33.44
2018-09-18T15:43:15.617Z,34.16
2018-09-18T15:45:48.072Z,34.58
2018-09-18T15:48:20.453Z,35.06
2018-09-18T15:50:52.819Z,34.67
2018-09-18T15:53:25.176Z,34.82
2018-09-18T15:55:57.524Z,34.85
2018-09-18T15:58:29.888Z,34.92
2018-09-18T16:01:02.232Z,34.78
2018-09-18T16:03:34.643Z,35.06
2018-09-18T16:06:07.044Z,35.02
2018-09-18T16:08:39.427Z,35.22
2018-09-18T16:11:11.770Z,36.24
2018-09-18T16:13:44.115Z,36.98
2018-09-18T16:16:16.565Z,36.75
2018-09-18T16:18:48.966Z,37.22
2018-09-18T16:21:21.289Z,37.57
2018-09-18T16:23:53.631Z,38.13
2018-09-18T16:26:26.008Z,38.19
2018-09-18T16:28:58.361Z,38.67
2018-09-18T16:31:30.755Z,39.40
2018-09-18T16:34:03.067Z,40.00
2018-09-18T16:36:35.550Z,40.71
2018-09-18T16:39:07.862Z,41.86
2018-09-18T16:41:40.165Z,42.65
2018-09-18T16:44:12.474Z,43.49
2018-09-18T16:46:44.827Z,43.95
2018-09-18T16:49:17.234Z,43.78
2018-09-18T16:51:49.773Z,44.02
2018-09-18T16:54:22.121Z,44.86
2018-09-18T16:56:54.558Z,42.10
2018-09-18T16:59:26.880Z,41.51
2018-09-18T17:01:59.290Z,42.83
2018-09-18T17:04:31.704Z,42.70
2018-09-18T17:07:04.251Z,43.45
2018-09-18T17:09:36.592Z,48.51
2018-09-18T17:12:08.966Z,52.64
2018-09-18T17:14:41.350Z,56.39
2018-09-18T17:17:13.703Z,57.70
2018-09-18T17:19:46.108Z,59.53
2018-09-18T17:22:18.447Z,61.10
2018-09-18T17:24:50.786Z,62.88
2018-09-18T17:27:23.172Z,63.28
2018-09-18T17:29:55.514Z,65.43
2018-09-18T17:32:27.841Z,67.17
2018-09-18T17:35:00.228Z,66.10
2018-09-18T17:37:32.522Z,69.05
2018-09-18T17:40:05.163Z,68.84
2018-09-18T17:42:37.533Z,71.20
2018-09-18T17:45:09.916Z,75.42
2018-09-18T17:47:42.227Z,75.61
2018-09-18T17:50:14.621Z,76.52
2018-09-18T17:52:46.947Z,76.65
2018-09-18T17:55:19.357Z,76.10
2018-09-18T17:57:51.669Z,76.36
2018-09-18T18:00:24.062Z,77.59
2018-09-18T18:02:56.455Z,76.44
2018-09-18T18:05:29.020Z,78.22
2018-09-18T18:08:08.136Z,79.50
2018-09-18T18:10:40.599Z,78.83
2018-09-18T18:13:13.017Z,77.49
2018-09-18T18:15:45.370Z,75.71
2018-09-18T18:18:17.718Z,78.57
2018-09-18T18:20:50.118Z,77.91
2018-09-18T18:23:22.457Z,79.46
2018-09-18T18:25:54.796Z,79.78
2018-09-18T18:28:27.197Z,80.58
2018-09-18T18:30:59.532Z,80.19
2018-09-18T18:33:31.978Z,79.07
2018-09-18T18:36:04.331Z,78.94
2018-09-18T18:38:36.656Z,79.46
2018-09-18T18:41:09.032Z,80.00
2018-09-18T18:43:41.406Z,78.62
2018-09-18T18:46:13.850Z,79.45
2018-09-18T18:48:46.271Z,79.61
2018-09-18T18:51:18.613Z,77.33
2018-09-18T18:53:51.043Z,79.28
2018-09-18T18:56:23.534Z,79.44
2018-09-18T18:58:55.930Z,80.58
2018-09-18T19:01:28.392Z,80.57
2018-09-18T19:04:00.838Z,80.83
2018-09-18T19:06:33.387Z,81.67
2018-09-18T19:09:06.814Z,80.78
2018-09-18T19:11:39.194Z,81.20
2018-09-18T19:14:11.540Z,79.47
2018-09-18T19:16:43.972Z,79.98
2018-09-18T19:19:16.408Z,79.92
2018-09-18T19:21:48.773Z,78.38
2018-09-18T19:24:21.153Z,79.53
2018-09-18T19:26:53.551Z,79.59
2018-09-18T19:29:25.846Z,79.98
2018-09-18T19:31:58.206Z,80.58
2018-09-18T19:34:30.613Z,80.82
2018-09-18T19:37:03.014Z,79.94
2018-09-18T19:39:35.374Z,80.14
2018-09-18T19:42:07.940Z,80.18
2018-09-18T19:44:40.408Z,78.87
2018-09-18T19:47:12.849Z,79.58
2018-09-18T19:49:45.305Z,79.91
2018-09-18T19:52:17.694Z,79.78
2018-09-18T19:54:50.037Z,79.71
2018-09-18T19:57:22.410Z,80.83
2018-09-18T19:59:54.718Z,80.06
2018-09-18T20:02:27.007Z,80.07
2018-09-18T20:04:59.384Z,79.62
2018-09-18T20:07:31.690Z,80.29
2018-09-18T20:10:04.334Z,80.04
2018-09-18T20:12:36.736Z,80.96
2018-09-18T20:15:09.116Z,80.63
2018-09-18T20:17:41.405Z,81.05
2018-09-18T20:20:13.744Z,80.49
2018-09-18T20:22:46.210Z,80.92
2018-09-18T20:25:18.546Z,80.54
2018-09-18T20:27:50.861Z,80.42
2018-09-18T20:30:23.216Z,81.02
2018-09-18T20:32:55.606Z,80.76
2018-09-18T20:35:27.927Z,80.91
2018-09-18T20:38:00.245Z,80.82
2018-09-18T20:40:32.598Z,80.24
2018-09-18T20:43:04.908Z,80.12
2018-09-18T20:45:37.278Z,80.44
2018-09-18T20:48:09.656Z,79.87
2018-09-18T20:50:42.021Z,79.93
2018-09-18T20:53:14.277Z,79.91
2018-09-18T20:55:46.632Z,79.20
2018-09-18T20:58:18.877Z,80.16
2018-09-18T21:00:51.283Z,79.55
2018-09-18T21:03:23.637Z,79.00
2018-09-18T21:05:55.985Z,79.73
2018-09-18T21:08:28.350Z,79.68
2018-09-18T21:11:00.596Z,79.65
2018-09-18T21:13:33.001Z,79.57
2018-09-18T21:16:05.514Z,79.08
2018-09-18T21:18:37.806Z,79.47
2018-09-18T21:21:10.142Z,79.62
2018-09-18T21:23:42.476Z,79.24
2018-09-18T21:26:17.010Z,79.49
2018-09-18T21:28:49.595Z,79.80
2018-09-18T21:31:21.862Z,79.34
2018-09-18T21:33:54.168Z,79.12
2018-09-18T21:36:26.461Z,78.89
2018-09-18T21:38:58.807Z,78.81
2018-09-18T21:41:31.080Z,79.38
2018-09-18T21:44:03.454Z,79.53
2018-09-18T21:46:35.789Z,80.05
2018-09-18T21:49:08.149Z,79.55
2018-09-18T21:51:40.480Z,78.36
2018-09-18T21:54:12.769Z,79.06
2018-09-18T21:56:45.063Z,79.47
2018-09-18T21:59:17.428Z,79.74
2018-09-18T22:01:49.755Z,79.04
2018-09-18T22:04:22.116Z,79.40
2018-09-18T22:06:54.438Z,79.58
2018-09-18T22:09:26.666Z,80.15
2018-09-18T22:11:58.952Z,79.36
2018-09-18T22:14:31.231Z,79.73
2018-09-18T22:17:03.763Z,79.83
2018-09-18T22:19:36.034Z,79.60
2018-09-18T22:22:08.348Z,79.38
2018-09-18T22:24:40.640Z,79.31
2018-09-18T22:27:12.878Z,78.95
2018-09-18T22:29:45.206Z,78.74
2018-09-18T22:32:17.488Z,79.27
2018-09-18T22:34:49.822Z,79.34
2018-09-18T22:37:22.980Z,78.90
2018-09-18T22:39:55.513Z,79.19
2018-09-18T22:42:27.803Z,79.10
2018-09-18T22:45:00.060Z,79.40
2018-09-18T22:47:32.404Z,79.35
2018-09-18T22:50:04.769Z,79.21
2018-09-18T22:52:37.077Z,79.03
2018-09-18T22:55:09.405Z,78.78
2018-09-18T22:57:41.715Z,78.62
2018-09-18T23:00:13.969Z,79.62
2018-09-18T23:02:46.212Z,79.98
2018-09-18T23:05:18.547Z,79.17
2018-09-18T23:07:50.828Z,79.70
2018-09-18T23:10:23.152Z,79.82
2018-09-18T23:12:55.431Z,80.06
2018-09-18T23:15:27.745Z,79.28
2018-09-18T23:18:00.005Z,78.95
2018-09-18T23:20:32.257Z,78.88
2018-09-18T23:23:04.609Z,78.19
2018-09-18T23:25:36.868Z,78.89
2018-09-18T23:28:09.366Z,79.83
2018-09-18T23:30:41.607Z,79.39
2018-09-18T23:33:13.894Z,79.33
2018-09-18T23:35:46.165Z,79.35
2018-09-18T23:38:18.460Z,79.76
2018-09-18T23:40:50.750Z,80.26
2018-09-18T23:43:23.025Z,80.75
2018-09-18T23:45:55.287Z,80.29
2018-09-18T23:48:27.552Z,79.87
2018-09-18T23:50:59.804Z,79.59
2018-09-18T23:53:32.165Z,79.86
2018-09-18T23:56:11.108Z,79.29
2018-09-18T23:58:43.424Z,79.17
